Huvudsida
METAR-TAF:

METAR-TAF

Flygplatser :

Kajana flygplats

Kajana, Finland

latitud: 64-17N, longitud: 027-41E, höjd: 143 m

Aktuellt väderrapport

Denna rapport gjordes för 43 minuter sedan, klockan 19:50 UTC
Vind 5 kt från syd/sydväst, varierande mellan syd och väst/sydväst
Temperatur -5°C
Fuktighet 86%
Tryck 1031 hPa
Sikt 10 km eller mer
Inga moln under 1 500 m eller inga cumulonimbus

METAR: EFKI 191950Z AUTO 21005KT 180V240 CAVOK M05/M07 Q1031

Tid: 22:33 (20:33 UTC)

Väderprognos

Denna rapport gjordes för 2 timmar och 55 minuter sedan, klockan 17:38 UTC
Prognos gäller från 19 kl. 18 UTC till 19 kl. 22 UTC
Vind 4 kt från väst/sydväst
Sikt 10 km eller mer
Inga moln under 1 500 m eller inga cumulonimbus
Blir
från 19 kl. 19 UTC till 19 kl. 21 UTC
Brutna moln på en höjd av 600 ft
Sannolikhet 30%
från 19 kl. 19 UTC till 19 kl. 22 UTC
Sikt: 3000 m
fuktdis

TAF: EFKI 191738Z 1918/1922 24004KT CAVOK BECMG 1919/1921 BKN006 PROB30 1919/1922 3000 BR

Aktuella väderrapporter och prognoser från 4000 flygplatser (METAR- och TAF-rapporter).

De tillgängliga stationerna syns som gula och röda prickar på kartan.

För musen över prickarna för att se namnen på stationerna.

Klicka sedan för att få väderrapporter och prognoser.

För att ändra kartan: Klicka på de gröna knapparna med ett svart kors på för att zooma in; den gröna knappen med ett streck på för att zooma ut; eller på de gröna pilarna för angränsande kartor.


METAR-TAF: